sensor_id;sensor_type;location;lat;lon;timestamp;P1;durP1;ratioP1;P2;durP2;ratioP2
54983;SDS011;40884;53.562;9.940;2023-02-07T00:00:16;13.07;;;9.43;;
54983;SDS011;40884;53.562;9.940;2023-02-07T00:01:17;10.97;;;8.40;;
54983;SDS011;40884;53.562;9.940;2023-02-07T00:02:17;11.13;;;9.65;;
54983;SDS011;40884;53.562;9.940;2023-02-07T00:03:18;13.10;;;8.93;;
54983;SDS011;40884;53.562;9.940;2023-02-07T00:04:18;13.70;;;9.10;;
54983;SDS011;40884;53.562;9.940;2023-02-07T00:05:18;11.43;;;8.53;;
54983;SDS011;40884;53.562;9.940;2023-02-07T00:06:22;12.57;;;8.63;;
54983;SDS011;40884;53.562;9.940;2023-02-07T00:07:23;12.93;;;8.85;;
54983;SDS011;40884;53.562;9.940;2023-02-07T00:08:23;12.50;;;9.23;;
54983;SDS011;40884;53.562;9.940;2023-02-07T00:09:23;13.43;;;9.47;;
54983;SDS011;40884;53.562;9.940;2023-02-07T00:10:23;12.70;;;9.50;;
54983;SDS011;40884;53.562;9.940;2023-02-07T00:11:23;10.10;;;8.30;;
54983;SDS011;40884;53.562;9.940;2023-02-07T00:12:24;12.97;;;9.20;;
54983;SDS011;40884;53.562;9.940;2023-02-07T00:13:24;13.27;;;9.00;;
54983;SDS011;40884;53.562;9.940;2023-02-07T00:14:24;13.07;;;9.27;;
54983;SDS011;40884;53.562;9.940;2023-02-07T00:15:24;11.43;;;9.00;;
54983;SDS011;40884;53.562;9.940;2023-02-07T00:16:24;12.10;;;9.13;;
54983;SDS011;40884;53.562;9.940;2023-02-07T00:17:25;9.90;;;8.33;;
54983;SDS011;40884;53.562;9.940;2023-02-07T00:18:25;11.37;;;8.70;;
54983;SDS011;40884;53.562;9.940;2023-02-07T00:19:25;9.93;;;7.97;;
54983;SDS011;40884;53.562;9.940;2023-02-07T00:20:25;9.67;;;8.00;;
54983;SDS011;40884;53.562;9.940;2023-02-07T00:21:25;10.67;;;8.23;;
54983;SDS011;40884;53.562;9.940;2023-02-07T00:22:26;13.43;;;8.83;;
54983;SDS011;40884;53.562;9.940;2023-02-07T00:23:26;10.30;;;8.27;;
54983;SDS011;40884;53.562;9.940;2023-02-07T00:24:26;15.63;;;9.20;;
54983;SDS011;40884;53.562;9.940;2023-02-07T00:25:27;11.37;;;8.87;;
54983;SDS011;40884;53.562;9.940;2023-02-07T00:26:27;13.27;;;8.97;;
54983;SDS011;40884;53.562;9.940;2023-02-07T00:27:27;11.00;;;8.17;;
54983;SDS011;40884;53.562;9.940;2023-02-07T00:28:27;13.53;;;8.70;;
54983;SDS011;40884;53.562;9.940;2023-02-07T00:29:28;9.93;;;7.67;;
54983;SDS011;40884;53.562;9.940;2023-02-07T00:30:28;11.57;;;8.57;;
54983;SDS011;40884;53.562;9.940;2023-02-07T00:31:30;11.80;;;8.32;;
54983;SDS011;40884;53.562;9.940;2023-02-07T00:32:30;12.85;;;8.80;;
54983;SDS011;40884;53.562;9.940;2023-02-07T00:33:31;9.00;;;8.10;;
54983;SDS011;40884;53.562;9.940;2023-02-07T00:34:31;13.03;;;8.87;;
54983;SDS011;40884;53.562;9.940;2023-02-07T00:35:31;12.00;;;9.00;;
54983;SDS011;40884;53.562;9.940;2023-02-07T00:36:33;10.73;;;8.10;;
54983;SDS011;40884;53.562;9.940;2023-02-07T00:37:33;11.98;;;8.32;;
54983;SDS011;40884;53.562;9.940;2023-02-07T00:38:33;11.37;;;8.47;;
54983;SDS011;40884;53.562;9.940;2023-02-07T00:39:33;10.60;;;8.57;;
54983;SDS011;40884;53.562;9.940;2023-02-07T00:40:33;12.83;;;8.90;;
54983;SDS011;40884;53.562;9.940;2023-02-07T00:41:33;10.83;;;8.87;;
54983;SDS011;40884;53.562;9.940;2023-02-07T00:42:34;10.43;;;8.47;;
54983;SDS011;40884;53.562;9.940;2023-02-07T00:43:34;11.27;;;8.93;;
54983;SDS011;40884;53.562;9.940;2023-02-07T00:44:34;11.70;;;9.37;;
54983;SDS011;40884;53.562;9.940;2023-02-07T00:45:34;14.00;;;9.50;;
54983;SDS011;40884;53.562;9.940;2023-02-07T00:46:34;11.33;;;9.10;;
54983;SDS011;40884;53.562;9.940;2023-02-07T00:47:35;11.53;;;9.13;;
54983;SDS011;40884;53.562;9.940;2023-02-07T00:48:35;11.10;;;9.00;;
54983;SDS011;40884;53.562;9.940;2023-02-07T00:49:35;12.40;;;9.30;;
54983;SDS011;40884;53.562;9.940;2023-02-07T00:50:35;12.53;;;8.90;;
54983;SDS011;40884;53.562;9.940;2023-02-07T00:51:35;11.30;;;8.67;;
54983;SDS011;40884;53.562;9.940;2023-02-07T00:52:36;11.23;;;8.60;;
54983;SDS011;40884;53.562;9.940;2023-02-07T00:53:36;11.03;;;9.33;;
54983;SDS011;40884;53.562;9.940;2023-02-07T00:54:36;10.93;;;8.63;;
54983;SDS011;40884;53.562;9.940;2023-02-07T00:55:36;10.40;;;8.27;;
54983;SDS011;40884;53.562;9.940;2023-02-07T00:56:36;11.00;;;8.43;;
54983;SDS011;40884;53.562;9.940;2023-02-07T00:57:36;11.37;;;8.80;;
54983;SDS011;40884;53.562;9.940;2023-02-07T00:58:37;12.63;;;8.13;;
54983;SDS011;40884;53.562;9.940;2023-02-07T00:59:37;12.50;;;8.57;;
54983;SDS011;40884;53.562;9.940;2023-02-07T01:00:37;12.83;;;8.77;;
54983;SDS011;40884;53.562;9.940;2023-02-07T01:01:37;10.00;;;8.87;;
54983;SDS011;40884;53.562;9.940;2023-02-07T01:02:37;10.47;;;8.37;;
54983;SDS011;40884;53.562;9.940;2023-02-07T01:03:37;11.17;;;8.53;;
54983;SDS011;40884;53.562;9.940;2023-02-07T01:04:38;12.03;;;8.60;;
54983;SDS011;40884;53.562;9.940;2023-02-07T01:05:38;11.63;;;8.87;;
54983;SDS011;40884;53.562;9.940;2023-02-07T01:06:38;9.43;;;7.90;;
54983;SDS011;40884;53.562;9.940;2023-02-07T01:07:38;11.53;;;8.63;;
54983;SDS011;40884;53.562;9.940;2023-02-07T01:08:39;11.17;;;8.57;;
54983;SDS011;40884;53.562;9.940;2023-02-07T01:09:39;12.53;;;8.73;;
54983;SDS011;40884;53.562;9.940;2023-02-07T01:10:40;10.33;;;8.50;;
54983;SDS011;40884;53.562;9.940;2023-02-07T01:11:43;10.65;;;8.25;;
54983;SDS011;40884;53.562;9.940;2023-02-07T01:12:43;13.03;;;8.27;;
54983;SDS011;40884;53.562;9.940;2023-02-07T01:13:43;13.67;;;9.07;;
54983;SDS011;40884;53.562;9.940;2023-02-07T01:14:43;12.23;;;8.70;;
54983;SDS011;40884;53.562;9.940;2023-02-07T01:15:45;11.10;;;9.15;;
54983;SDS011;40884;53.562;9.940;2023-02-07T01:16:45;11.53;;;8.37;;
54983;SDS011;40884;53.562;9.940;2023-02-07T01:17:45;12.60;;;9.20;;
54983;SDS011;40884;53.562;9.940;2023-02-07T01:18:46;13.30;;;9.00;;
54983;SDS011;40884;53.562;9.940;2023-02-07T01:19:46;9.43;;;8.43;;
54983;SDS011;40884;53.562;9.940;2023-02-07T01:20:46;11.97;;;8.50;;
54983;SDS011;40884;53.562;9.940;2023-02-07T01:21:46;11.77;;;8.60;;
54983;SDS011;40884;53.562;9.940;2023-02-07T01:22:47;10.00;;;8.27;;
54983;SDS011;40884;53.562;9.940;2023-02-07T01:23:47;10.77;;;8.17;;
54983;SDS011;40884;53.562;9.940;2023-02-07T01:24:47;10.33;;;8.00;;
54983;SDS011;40884;53.562;9.940;2023-02-07T01:25:47;12.13;;;8.93;;
54983;SDS011;40884;53.562;9.940;2023-02-07T01:26:48;13.93;;;8.90;;
54983;SDS011;40884;53.562;9.940;2023-02-07T01:27:48;10.80;;;8.90;;
54983;SDS011;40884;53.562;9.940;2023-02-07T01:28:48;10.57;;;8.73;;
54983;SDS011;40884;53.562;9.940;2023-02-07T01:29:48;11.10;;;8.53;;
54983;SDS011;40884;53.562;9.940;2023-02-07T01:30:48;10.53;;;8.33;;
54983;SDS011;40884;53.562;9.940;2023-02-07T01:31:48;10.17;;;7.73;;
54983;SDS011;40884;53.562;9.940;2023-02-07T01:32:49;10.60;;;8.33;;
54983;SDS011;40884;53.562;9.940;2023-02-07T01:33:56;9.67;;;8.27;;
54983;SDS011;40884;53.562;9.940;2023-02-07T01:34:57;10.50;;;8.02;;
54983;SDS011;40884;53.562;9.940;2023-02-07T01:35:58;12.73;;;7.93;;
54983;SDS011;40884;53.562;9.940;2023-02-07T01:36:58;10.83;;;8.27;;
54983;SDS011;40884;53.562;9.940;2023-02-07T01:37:58;11.60;;;8.17;;
54983;SDS011;40884;53.562;9.940;2023-02-07T01:38:58;10.60;;;7.97;;
54983;SDS011;40884;53.562;9.940;2023-02-07T01:39:59;11.73;;;8.03;;
54983;SDS011;40884;53.562;9.940;2023-02-07T01:40:59;11.07;;;8.43;;
54983;SDS011;40884;53.562;9.940;2023-02-07T01:41:59;10.40;;;8.27;;
54983;SDS011;40884;53.562;9.940;2023-02-07T01:43:00;11.23;;;8.57;;
54983;SDS011;40884;53.562;9.940;2023-02-07T01:45:09;11.90;;;8.80;;
54983;SDS011;40884;53.562;9.940;2023-02-07T01:46:11;8.70;;;7.65;;
54983;SDS011;40884;53.562;9.940;2023-02-07T01:47:14;12.40;;;8.03;;
54983;SDS011;40884;53.562;9.940;2023-02-07T01:48:19;9.40;;;8.23;;
54983;SDS011;40884;53.562;9.940;2023-02-07T01:49:23;9.88;;;8.15;;
54983;SDS011;40884;53.562;9.940;2023-02-07T01:50:24;10.32;;;7.93;;
54983;SDS011;40884;53.562;9.940;2023-02-07T01:51:24;10.43;;;8.67;;
54983;SDS011;40884;53.562;9.940;2023-02-07T01:52:30;10.47;;;7.93;;
54983;SDS011;40884;53.562;9.940;2023-02-07T01:53:30;10.23;;;8.25;;
54983;SDS011;40884;53.562;9.940;2023-02-07T01:54:33;11.27;;;8.40;;
54983;SDS011;40884;53.562;9.940;2023-02-07T01:55:35;10.33;;;8.03;;
54983;SDS011;40884;53.562;9.940;2023-02-07T01:56:37;9.85;;;7.72;;
54983;SDS011;40884;53.562;9.940;2023-02-07T01:57:40;9.45;;;8.00;;
54983;SDS011;40884;53.562;9.940;2023-02-07T01:58:40;11.30;;;8.10;;
54983;SDS011;40884;53.562;9.940;2023-02-07T01:59:40;9.07;;;7.67;;
54983;SDS011;40884;53.562;9.940;2023-02-07T02:00:41;9.40;;;8.47;;
54983;SDS011;40884;53.562;9.940;2023-02-07T02:01:42;9.77;;;8.13;;
54983;SDS011;40884;53.562;9.940;2023-02-07T02:02:43;11.40;;;8.35;;
54983;SDS011;40884;53.562;9.940;2023-02-07T02:03:44;9.17;;;7.30;;
54983;SDS011;40884;53.562;9.940;2023-02-07T02:04:45;9.45;;;7.75;;
54983;SDS011;40884;53.562;9.940;2023-02-07T02:05:46;9.53;;;7.97;;
54983;SDS011;40884;53.562;9.940;2023-02-07T02:06:48;10.60;;;7.93;;
54983;SDS011;40884;53.562;9.940;2023-02-07T02:07:48;9.30;;;7.70;;
54983;SDS011;40884;53.562;9.940;2023-02-07T02:08:48;8.80;;;7.83;;
54983;SDS011;40884;53.562;9.940;2023-02-07T02:09:50;10.95;;;8.25;;
54983;SDS011;40884;53.562;9.940;2023-02-07T02:10:58;9.63;;;7.80;;
54983;SDS011;40884;53.562;9.940;2023-02-07T02:14:17;10.35;;;8.15;;
54983;SDS011;40884;53.562;9.940;2023-02-07T02:15:27;9.95;;;7.85;;
54983;SDS011;40884;53.562;9.940;2023-02-07T02:16:41;9.70;;;7.65;;
54983;SDS011;40884;53.562;9.940;2023-02-07T02:19:12;9.85;;;7.22;;
54983;SDS011;40884;53.562;9.940;2023-02-07T02:22:36;9.73;;;7.80;;
54983;SDS011;40884;53.562;9.940;2023-02-07T02:27:22;9.90;;;7.80;;
54983;SDS011;40884;53.562;9.940;2023-02-07T02:29:49;9.93;;;7.95;;
54983;SDS011;40884;53.562;9.940;2023-02-07T02:34:30;9.10;;;7.85;;
54983;SDS011;40884;53.562;9.940;2023-02-07T02:35:45;10.40;;;8.30;;
54983;SDS011;40884;53.562;9.940;2023-02-07T02:36:58;9.70;;;8.02;;
54983;SDS011;40884;53.562;9.940;2023-02-07T02:38:17;10.88;;;8.05;;
54983;SDS011;40884;53.562;9.940;2023-02-07T02:41:34;11.07;;;8.10;;
54983;SDS011;40884;53.562;9.940;2023-02-07T02:42:38;11.95;;;8.23;;
54983;SDS011;40884;53.562;9.940;2023-02-07T02:43:42;10.38;;;8.45;;
54983;SDS011;40884;53.562;9.940;2023-02-07T02:44:45;9.25;;;8.15;;
54983;SDS011;40884;53.562;9.940;2023-02-07T02:45:50;10.65;;;7.97;;
54983;SDS011;40884;53.562;9.940;2023-02-07T02:46:52;8.45;;;7.38;;
54983;SDS011;40884;53.562;9.940;2023-02-07T02:47:52;8.57;;;7.67;;
54983;SDS011;40884;53.562;9.940;2023-02-07T02:48:53;9.93;;;8.07;;
54983;SDS011;40884;53.562;9.940;2023-02-07T02:49:53;11.07;;;7.87;;
54983;SDS011;40884;53.562;9.940;2023-02-07T02:50:53;8.97;;;7.90;;
54983;SDS011;40884;53.562;9.940;2023-02-07T02:51:54;9.20;;;7.77;;
54983;SDS011;40884;53.562;9.940;2023-02-07T02:52:55;9.80;;;8.15;;
54983;SDS011;40884;53.562;9.940;2023-02-07T02:53:59;9.88;;;8.05;;
54983;SDS011;40884;53.562;9.940;2023-02-07T02:55:08;9.98;;;8.30;;
54983;SDS011;40884;53.562;9.940;2023-02-07T02:58:41;12.55;;;8.63;;
54983;SDS011;40884;53.562;9.940;2023-02-07T03:09:15;9.48;;;7.95;;
54983;SDS011;40884;53.562;9.940;2023-02-07T03:10:30;9.07;;;8.15;;
54983;SDS011;40884;53.562;9.940;2023-02-07T03:11:34;9.13;;;7.78;;
54983;SDS011;40884;53.562;9.940;2023-02-07T03:12:42;10.65;;;7.72;;
54983;SDS011;40884;53.562;9.940;2023-02-07T03:13:58;9.88;;;8.25;;
54983;SDS011;40884;53.562;9.940;2023-02-07T03:15:07;9.23;;;7.45;;
54983;SDS011;40884;53.562;9.940;2023-02-07T03:16:19;11.50;;;7.80;;
54983;SDS011;40884;53.562;9.940;2023-02-07T03:17:21;9.52;;;7.72;;
54983;SDS011;40884;53.562;9.940;2023-02-07T03:19:47;9.23;;;8.23;;
54983;SDS011;40884;53.562;9.940;2023-02-07T03:20:53;9.25;;;8.18;;
54983;SDS011;40884;53.562;9.940;2023-02-07T03:21:56;11.57;;;8.40;;
54983;SDS011;40884;53.562;9.940;2023-02-07T03:22:57;8.88;;;7.97;;
54983;SDS011;40884;53.562;9.940;2023-02-07T03:24:00;9.27;;;8.10;;
54983;SDS011;40884;53.562;9.940;2023-02-07T03:25:00;10.52;;;8.23;;
54983;SDS011;40884;53.562;9.940;2023-02-07T03:26:03;8.88;;;7.22;;
54983;SDS011;40884;53.562;9.940;2023-02-07T03:27:07;11.07;;;7.93;;
54983;SDS011;40884;53.562;9.940;2023-02-07T03:28:08;9.35;;;7.13;;
54983;SDS011;40884;53.562;9.940;2023-02-07T03:29:09;9.53;;;8.20;;
54983;SDS011;40884;53.562;9.940;2023-02-07T03:30:09;10.10;;;8.00;;
54983;SDS011;40884;53.562;9.940;2023-02-07T03:31:11;8.82;;;7.18;;
54983;SDS011;40884;53.562;9.940;2023-02-07T03:32:13;9.80;;;7.78;;
54983;SDS011;40884;53.562;9.940;2023-02-07T03:33:14;10.20;;;7.68;;
54983;SDS011;40884;53.562;9.940;2023-02-07T03:34:17;7.85;;;6.70;;
54983;SDS011;40884;53.562;9.940;2023-02-07T03:35:26;8.38;;;7.38;;
54983;SDS011;40884;53.562;9.940;2023-02-07T03:36:33;9.43;;;7.82;;
54983;SDS011;40884;53.562;9.940;2023-02-07T03:37:38;9.65;;;7.93;;
54983;SDS011;40884;53.562;9.940;2023-02-07T03:38:40;8.52;;;7.43;;
54983;SDS011;40884;53.562;9.940;2023-02-07T03:39:40;9.53;;;8.07;;
54983;SDS011;40884;53.562;9.940;2023-02-07T03:40:45;10.40;;;8.00;;
54983;SDS011;40884;53.562;9.940;2023-02-07T03:41:48;10.77;;;7.85;;
54983;SDS011;40884;53.562;9.940;2023-02-07T03:42:52;9.73;;;8.32;;
54983;SDS011;40884;53.562;9.940;2023-02-07T03:43:54;9.95;;;7.70;;
54983;SDS011;40884;53.562;9.940;2023-02-07T03:44:55;9.88;;;7.72;;
54983;SDS011;40884;53.562;9.940;2023-02-07T03:45:56;9.05;;;7.78;;
54983;SDS011;40884;53.562;9.940;2023-02-07T03:46:57;9.20;;;8.07;;
54983;SDS011;40884;53.562;9.940;2023-02-07T03:47:57;9.33;;;7.63;;
54983;SDS011;40884;53.562;9.940;2023-02-07T03:48:57;9.07;;;7.57;;
54983;SDS011;40884;53.562;9.940;2023-02-07T03:49:57;10.33;;;8.40;;
54983;SDS011;40884;53.562;9.940;2023-02-07T03:50:57;9.67;;;8.13;;
54983;SDS011;40884;53.562;9.940;2023-02-07T03:51:58;9.60;;;7.70;;
54983;SDS011;40884;53.562;9.940;2023-02-07T03:52:58;9.97;;;8.03;;
54983;SDS011;40884;53.562;9.940;2023-02-07T03:53:58;10.20;;;7.60;;
54983;SDS011;40884;53.562;9.940;2023-02-07T03:54:58;8.73;;;7.53;;
54983;SDS011;40884;53.562;9.940;2023-02-07T03:55:58;9.57;;;7.60;;
54983;SDS011;40884;53.562;9.940;2023-02-07T03:56:58;9.03;;;7.13;;
54983;SDS011;40884;53.562;9.940;2023-02-07T03:57:58;9.03;;;7.37;;
54983;SDS011;40884;53.562;9.940;2023-02-07T03:58:59;8.07;;;7.17;;
54983;SDS011;40884;53.562;9.940;2023-02-07T03:59:59;9.50;;;7.77;;
54983;SDS011;40884;53.562;9.940;2023-02-07T04:00:59;8.23;;;7.43;;
54983;SDS011;40884;53.562;9.940;2023-02-07T04:01:59;10.30;;;7.73;;
54983;SDS011;40884;53.562;9.940;2023-02-07T04:02:59;10.23;;;7.87;;
54983;SDS011;40884;53.562;9.940;2023-02-07T04:03:59;8.63;;;7.73;;
54983;SDS011;40884;53.562;9.940;2023-02-07T04:05:00;8.83;;;7.83;;
54983;SDS011;40884;53.562;9.940;2023-02-07T04:06:00;10.43;;;8.40;;
54983;SDS011;40884;53.562;9.940;2023-02-07T04:07:00;9.53;;;8.53;;
54983;SDS011;40884;53.562;9.940;2023-02-07T04:08:00;9.23;;;8.23;;
54983;SDS011;40884;53.562;9.940;2023-02-07T04:09:00;9.03;;;7.93;;
54983;SDS011;40884;53.562;9.940;2023-02-07T04:10:00;8.47;;;7.57;;
54983;SDS011;40884;53.562;9.940;2023-02-07T04:11:01;9.67;;;7.83;;
54983;SDS011;40884;53.562;9.940;2023-02-07T04:12:02;12.52;;;8.60;;
54983;SDS011;40884;53.562;9.940;2023-02-07T04:13:02;10.33;;;8.07;;
54983;SDS011;40884;53.562;9.940;2023-02-07T04:14:03;9.27;;;8.27;;
54983;SDS011;40884;53.562;9.940;2023-02-07T04:15:04;9.50;;;8.10;;
54983;SDS011;40884;53.562;9.940;2023-02-07T04:16:04;10.43;;;8.32;;
54983;SDS011;40884;53.562;9.940;2023-02-07T04:17:05;10.47;;;8.57;;
54983;SDS011;40884;53.562;9.940;2023-02-07T04:18:05;8.07;;;7.27;;
54983;SDS011;40884;53.562;9.940;2023-02-07T04:19:05;9.67;;;8.00;;
54983;SDS011;40884;53.562;9.940;2023-02-07T04:20:05;10.90;;;8.13;;
54983;SDS011;40884;53.562;9.940;2023-02-07T04:21:06;10.27;;;7.47;;
54983;SDS011;40884;53.562;9.940;2023-02-07T04:22:07;10.52;;;8.40;;
54983;SDS011;40884;53.562;9.940;2023-02-07T04:23:07;10.40;;;7.87;;
54983;SDS011;40884;53.562;9.940;2023-02-07T04:24:07;9.57;;;7.97;;
54983;SDS011;40884;53.562;9.940;2023-02-07T04:25:08;9.73;;;8.02;;
54983;SDS011;40884;53.562;9.940;2023-02-07T04:26:08;9.00;;;7.90;;
54983;SDS011;40884;53.562;9.940;2023-02-07T04:27:08;10.03;;;8.23;;
54983;SDS011;40884;53.562;9.940;2023-02-07T04:28:09;9.33;;;7.63;;
54983;SDS011;40884;53.562;9.940;2023-02-07T04:29:09;10.53;;;8.03;;
54983;SDS011;40884;53.562;9.940;2023-02-07T04:30:09;8.40;;;7.60;;
54983;SDS011;40884;53.562;9.940;2023-02-07T04:31:09;9.10;;;8.20;;
54983;SDS011;40884;53.562;9.940;2023-02-07T04:32:10;9.77;;;8.23;;
54983;SDS011;40884;53.562;9.940;2023-02-07T04:33:10;11.37;;;8.50;;
54983;SDS011;40884;53.562;9.940;2023-02-07T04:34:10;9.70;;;7.93;;
54983;SDS011;40884;53.562;9.940;2023-02-07T04:35:11;9.63;;;8.00;;
54983;SDS011;40884;53.562;9.940;2023-02-07T04:36:11;8.63;;;7.73;;
54983;SDS011;40884;53.562;9.940;2023-02-07T04:37:11;12.87;;;8.17;;
54983;SDS011;40884;53.562;9.940;2023-02-07T04:38:11;8.97;;;8.00;;
54983;SDS011;40884;53.562;9.940;2023-02-07T04:39:11;10.13;;;8.20;;
54983;SDS011;40884;53.562;9.940;2023-02-07T04:40:11;9.53;;;7.37;;
54983;SDS011;40884;53.562;9.940;2023-02-07T04:41:11;9.53;;;8.10;;
54983;SDS011;40884;53.562;9.940;2023-02-07T04:42:11;9.27;;;7.97;;
54983;SDS011;40884;53.562;9.940;2023-02-07T04:43:11;8.60;;;7.70;;
54983;SDS011;40884;53.562;9.940;2023-02-07T04:44:12;9.53;;;8.23;;
54983;SDS011;40884;53.562;9.940;2023-02-07T04:45:12;9.63;;;8.37;;
54983;SDS011;40884;53.562;9.940;2023-02-07T04:46:12;10.57;;;8.10;;
54983;SDS011;40884;53.562;9.940;2023-02-07T04:47:12;9.63;;;7.87;;
54983;SDS011;40884;53.562;9.940;2023-02-07T04:48:13;10.07;;;8.23;;
54983;SDS011;40884;53.562;9.940;2023-02-07T04:49:13;9.83;;;7.77;;
54983;SDS011;40884;53.562;9.940;2023-02-07T04:50:13;9.03;;;8.00;;
54983;SDS011;40884;53.562;9.940;2023-02-07T04:51:13;9.57;;;8.40;;
54983;SDS011;40884;53.562;9.940;2023-02-07T04:52:14;11.30;;;8.60;;
54983;SDS011;40884;53.562;9.940;2023-02-07T04:53:14;10.50;;;8.30;;
54983;SDS011;40884;53.562;9.940;2023-02-07T04:54:14;8.67;;;7.40;;
54983;SDS011;40884;53.562;9.940;2023-02-07T04:55:14;9.67;;;8.30;;
54983;SDS011;40884;53.562;9.940;2023-02-07T04:56:14;9.50;;;8.30;;
54983;SDS011;40884;53.562;9.940;2023-02-07T04:57:14;9.50;;;8.00;;
54983;SDS011;40884;53.562;9.940;2023-02-07T04:58:15;9.77;;;7.93;;
54983;SDS011;40884;53.562;9.940;2023-02-07T04:59:15;11.03;;;8.23;;
54983;SDS011;40884;53.562;9.940;2023-02-07T05:00:15;8.73;;;7.70;;
54983;SDS011;40884;53.562;9.940;2023-02-07T05:01:15;9.93;;;8.70;;
54983;SDS011;40884;53.562;9.940;2023-02-07T05:02:15;9.47;;;8.27;;
54983;SDS011;40884;53.562;9.940;2023-02-07T05:03:16;9.40;;;8.40;;
54983;SDS011;40884;53.562;9.940;2023-02-07T05:04:16;9.03;;;7.70;;
54983;SDS011;40884;53.562;9.940;2023-02-07T05:05:16;11.47;;;8.20;;
54983;SDS011;40884;53.562;9.940;2023-02-07T05:06:16;8.83;;;7.90;;
54983;SDS011;40884;53.562;9.940;2023-02-07T05:07:16;10.27;;;7.73;;
54983;SDS011;40884;53.562;9.940;2023-02-07T05:08:16;10.33;;;8.37;;
54983;SDS011;40884;53.562;9.940;2023-02-07T05:09:16;9.87;;;8.30;;
54983;SDS011;40884;53.562;9.940;2023-02-07T05:10:16;9.57;;;7.77;;
54983;SDS011;40884;53.562;9.940;2023-02-07T05:11:17;10.23;;;8.03;;
54983;SDS011;40884;53.562;9.940;2023-02-07T05:12:17;12.03;;;7.93;;
54983;SDS011;40884;53.562;9.940;2023-02-07T05:13:17;10.57;;;9.10;;
54983;SDS011;40884;53.562;9.940;2023-02-07T05:14:17;9.03;;;7.67;;
54983;SDS011;40884;53.562;9.940;2023-02-07T05:15:17;11.03;;;8.60;;
54983;SDS011;40884;53.562;9.940;2023-02-07T05:16:17;9.97;;;8.57;;
54983;SDS011;40884;53.562;9.940;2023-02-07T05:17:17;11.23;;;7.93;;
54983;SDS011;40884;53.562;9.940;2023-02-07T05:18:18;10.87;;;8.67;;
54983;SDS011;40884;53.562;9.940;2023-02-07T05:19:18;9.90;;;8.00;;
54983;SDS011;40884;53.562;9.940;2023-02-07T05:20:18;9.97;;;7.90;;
54983;SDS011;40884;53.562;9.940;2023-02-07T05:21:18;8.53;;;7.63;;
54983;SDS011;40884;53.562;9.940;2023-02-07T05:22:18;8.97;;;7.97;;
54983;SDS011;40884;53.562;9.940;2023-02-07T05:23:19;9.87;;;8.30;;
54983;SDS011;40884;53.562;9.940;2023-02-07T05:24:19;11.43;;;8.67;;
54983;SDS011;40884;53.562;9.940;2023-02-07T05:25:19;9.37;;;8.17;;
54983;SDS011;40884;53.562;9.940;2023-02-07T05:26:19;11.70;;;8.40;;
54983;SDS011;40884;53.562;9.940;2023-02-07T05:27:19;9.90;;;8.13;;
54983;SDS011;40884;53.562;9.940;2023-02-07T05:28:20;10.23;;;8.33;;
54983;SDS011;40884;53.562;9.940;2023-02-07T05:29:20;10.77;;;8.00;;
54983;SDS011;40884;53.562;9.940;2023-02-07T05:30:20;10.93;;;8.17;;
54983;SDS011;40884;53.562;9.940;2023-02-07T05:31:20;9.77;;;8.10;;
54983;SDS011;40884;53.562;9.940;2023-02-07T05:32:20;9.43;;;8.13;;
54983;SDS011;40884;53.562;9.940;2023-02-07T05:33:21;10.87;;;8.43;;
54983;SDS011;40884;53.562;9.940;2023-02-07T05:34:21;9.07;;;8.17;;
54983;SDS011;40884;53.562;9.940;2023-02-07T05:35:22;10.20;;;8.37;;
54983;SDS011;40884;53.562;9.940;2023-02-07T05:36:22;10.50;;;8.40;;
54983;SDS011;40884;53.562;9.940;2023-02-07T05:37:22;12.83;;;7.90;;
54983;SDS011;40884;53.562;9.940;2023-02-07T05:38:22;9.67;;;8.17;;
54983;SDS011;40884;53.562;9.940;2023-02-07T05:39:22;10.30;;;8.93;;
54983;SDS011;40884;53.562;9.940;2023-02-07T05:40:23;9.63;;;8.23;;
54983;SDS011;40884;53.562;9.940;2023-02-07T05:41:23;9.23;;;8.23;;
54983;SDS011;40884;53.562;9.940;2023-02-07T05:42:23;9.97;;;7.83;;
54983;SDS011;40884;53.562;9.940;2023-02-07T05:43:23;9.83;;;8.80;;
54983;SDS011;40884;53.562;9.940;2023-02-07T05:44:23;9.50;;;8.23;;
54983;SDS011;40884;53.562;9.940;2023-02-07T05:45:24;10.07;;;8.40;;
54983;SDS011;40884;53.562;9.940;2023-02-07T05:46:24;10.47;;;8.13;;
54983;SDS011;40884;53.562;9.940;2023-02-07T05:47:24;12.33;;;8.67;;
54983;SDS011;40884;53.562;9.940;2023-02-07T05:48:24;10.47;;;8.60;;
54983;SDS011;40884;53.562;9.940;2023-02-07T05:49:24;10.10;;;7.90;;
54983;SDS011;40884;53.562;9.940;2023-02-07T05:50:24;12.03;;;8.77;;
54983;SDS011;40884;53.562;9.940;2023-02-07T05:51:37;10.63;;;8.50;;
54983;SDS011;40884;53.562;9.940;2023-02-07T05:52:37;10.27;;;8.30;;
54983;SDS011;40884;53.562;9.940;2023-02-07T05:53:37;11.33;;;8.83;;
54983;SDS011;40884;53.562;9.940;2023-02-07T05:54:38;10.93;;;8.73;;
54983;SDS011;40884;53.562;9.940;2023-02-07T05:55:38;11.57;;;8.33;;
54983;SDS011;40884;53.562;9.940;2023-02-07T05:56:38;11.57;;;8.70;;
54983;SDS011;40884;53.562;9.940;2023-02-07T05:57:41;11.17;;;8.40;;
54983;SDS011;40884;53.562;9.940;2023-02-07T05:58:41;12.15;;;8.63;;
54983;SDS011;40884;53.562;9.940;2023-02-07T05:59:42;10.37;;;8.40;;
54983;SDS011;40884;53.562;9.940;2023-02-07T06:00:42;9.77;;;8.40;;
54983;SDS011;40884;53.562;9.940;2023-02-07T06:01:42;11.57;;;8.60;;
54983;SDS011;40884;53.562;9.940;2023-02-07T06:02:42;9.93;;;8.90;;
54983;SDS011;40884;53.562;9.940;2023-02-07T06:03:42;11.87;;;9.00;;
54983;SDS011;40884;53.562;9.940;2023-02-07T06:04:43;11.33;;;8.43;;
54983;SDS011;40884;53.562;9.940;2023-02-07T06:05:43;14.03;;;9.20;;
54983;SDS011;40884;53.562;9.940;2023-02-07T06:06:43;11.60;;;9.27;;
54983;SDS011;40884;53.562;9.940;2023-02-07T06:07:43;13.20;;;9.87;;
54983;SDS011;40884;53.562;9.940;2023-02-07T06:08:43;11.97;;;8.37;;
54983;SDS011;40884;53.562;9.940;2023-02-07T06:09:43;11.93;;;10.03;;
54983;SDS011;40884;53.562;9.940;2023-02-07T06:10:43;11.13;;;9.07;;
54983;SDS011;40884;53.562;9.940;2023-02-07T06:11:44;11.83;;;9.23;;
54983;SDS011;40884;53.562;9.940;2023-02-07T06:12:44;10.07;;;8.57;;
54983;SDS011;40884;53.562;9.940;2023-02-07T06:13:44;10.37;;;8.87;;
54983;SDS011;40884;53.562;9.940;2023-02-07T06:14:44;11.80;;;9.00;;
54983;SDS011;40884;53.562;9.940;2023-02-07T06:15:44;13.70;;;8.83;;
54983;SDS011;40884;53.562;9.940;2023-02-07T06:16:44;11.60;;;10.17;;
54983;SDS011;40884;53.562;9.940;2023-02-07T06:17:44;9.43;;;8.30;;
54983;SDS011;40884;53.562;9.940;2023-02-07T06:18:44;11.53;;;8.53;;
54983;SDS011;40884;53.562;9.940;2023-02-07T06:19:45;9.53;;;8.27;;
54983;SDS011;40884;53.562;9.940;2023-02-07T06:20:45;10.07;;;9.00;;
54983;SDS011;40884;53.562;9.940;2023-02-07T06:21:45;10.97;;;8.83;;
54983;SDS011;40884;53.562;9.940;2023-02-07T06:22:45;10.93;;;9.53;;
54983;SDS011;40884;53.562;9.940;2023-02-07T06:23:45;10.80;;;9.67;;
54983;SDS011;40884;53.562;9.940;2023-02-07T06:24:45;10.60;;;9.30;;
54983;SDS011;40884;53.562;9.940;2023-02-07T06:25:46;12.93;;;9.33;;
54983;SDS011;40884;53.562;9.940;2023-02-07T06:26:46;12.43;;;9.10;;
54983;SDS011;40884;53.562;9.940;2023-02-07T06:27:46;12.97;;;9.40;;
54983;SDS011;40884;53.562;9.940;2023-02-07T06:28:46;11.87;;;10.17;;
54983;SDS011;40884;53.562;9.940;2023-02-07T06:29:46;12.37;;;9.93;;
54983;SDS011;40884;53.562;9.940;2023-02-07T06:30:47;12.10;;;9.77;;
54983;SDS011;40884;53.562;9.940;2023-02-07T06:31:47;12.57;;;9.53;;
54983;SDS011;40884;53.562;9.940;2023-02-07T06:32:47;12.27;;;9.27;;
54983;SDS011;40884;53.562;9.940;2023-02-07T06:33:47;9.73;;;8.73;;
54983;SDS011;40884;53.562;9.940;2023-02-07T06:34:47;11.33;;;9.87;;
54983;SDS011;40884;53.562;9.940;2023-02-07T06:35:47;12.83;;;10.07;;
54983;SDS011;40884;53.562;9.940;2023-02-07T06:36:48;13.10;;;9.77;;